createdAt,value
2022-12-11T00:02:16.896Z,2.78
2022-12-11T00:05:40.513Z,3.55
2022-12-11T00:09:04.488Z,2.53
2022-12-11T00:12:31.025Z,2.08
2022-12-11T00:15:53.261Z,1.63
2022-12-11T00:19:15.021Z,2.53
2022-12-11T00:22:37.509Z,1.67
2022-12-11T00:25:59.322Z,1.17
2022-12-11T00:29:22.385Z,1.63
2022-12-11T00:32:44.479Z,1.10
2022-12-11T00:36:12.743Z,1.95
2022-12-11T00:39:34.499Z,1.73
2022-12-11T00:42:56.108Z,1.50
2022-12-11T00:46:19.476Z,1.65
2022-12-11T00:49:45.182Z,2.55
2022-12-11T00:53:11.538Z,1.30
2022-12-11T00:56:33.578Z,1.67
2022-12-11T00:59:55.716Z,2.22
2022-12-11T01:03:19.372Z,2.58
2022-12-11T01:06:41.271Z,2.70
2022-12-11T01:10:20.654Z,2.30
2022-12-11T01:13:44.509Z,1.98
2022-12-11T01:17:06.370Z,2.70
2022-12-11T01:20:29.861Z,2.35
2022-12-11T01:23:51.959Z,2.20
2022-12-11T01:27:13.522Z,2.47
2022-12-11T01:30:35.964Z,2.38
2022-12-11T01:33:58.237Z,1.70
2022-12-11T01:37:21.592Z,1.58
2022-12-11T01:40:53.205Z,2.13
2022-12-11T01:44:48.032Z,1.83
2022-12-11T01:48:12.775Z,2.03
2022-12-11T01:51:38.630Z,1.67
2022-12-11T01:55:02.519Z,1.42
2022-12-11T01:58:28.841Z,1.63
2022-12-11T02:01:56.318Z,1.52
2022-12-11T02:05:21.259Z,1.60
2022-12-11T02:08:42.887Z,1.58
2022-12-11T02:12:16.614Z,1.65
2022-12-11T02:15:48.646Z,1.75
2022-12-11T02:19:23.094Z,1.38
2022-12-11T02:23:26.110Z,2.13
2022-12-11T02:27:09.930Z,2.08
2022-12-11T02:30:34.700Z,2.63
2022-12-11T02:34:02.511Z,2.13
2022-12-11T02:37:31.554Z,2.40
2022-12-11T02:40:56.786Z,3.10
2022-12-11T02:44:24.703Z,2.03
2022-12-11T02:47:50.499Z,1.95
2022-12-11T02:51:15.562Z,2.83
2022-12-11T02:54:40.821Z,2.67
2022-12-11T02:58:08.816Z,2.00
2022-12-11T03:01:31.081Z,2.22
2022-12-11T03:04:54.554Z,2.33
2022-12-11T03:08:17.999Z,2.40
2022-12-11T03:11:39.644Z,1.75
2022-12-11T03:15:04.220Z,1.58
2022-12-11T03:18:32.320Z,2.47
2022-12-11T03:22:01.766Z,2.15
2022-12-11T03:25:27.613Z,2.03
2022-12-11T03:28:52.427Z,2.63
2022-12-11T03:32:20.028Z,2.40
2022-12-11T03:35:44.267Z,2.08
2022-12-11T03:39:11.891Z,2.67
2022-12-11T03:42:36.851Z,2.67
2022-12-11T03:46:00.747Z,2.17
2022-12-11T03:49:27.435Z,2.25
2022-12-11T03:52:51.122Z,2.72
2022-12-11T03:56:21.528Z,3.83
2022-12-11T03:59:43.426Z,3.25
2022-12-11T04:03:18.047Z,2.03
2022-12-11T04:06:39.773Z,2.80
2022-12-11T04:10:01.989Z,2.33
2022-12-11T04:13:25.307Z,2.20
2022-12-11T04:16:45.855Z,2.60
2022-12-11T04:20:26.618Z,2.20
2022-12-11T04:24:05.648Z,1.98
2022-12-11T04:27:45.551Z,2.15
2022-12-11T04:31:13.015Z,2.83
2022-12-11T04:34:34.971Z,2.10
2022-12-11T04:37:56.842Z,2.10
2022-12-11T04:41:18.688Z,1.85
2022-12-11T04:44:40.466Z,1.80
2022-12-11T04:48:03.801Z,2.05
2022-12-11T04:51:26.039Z,1.88
2022-12-11T04:54:48.187Z,2.10
2022-12-11T04:58:10.186Z,2.50
2022-12-11T05:01:32.286Z,2.10
2022-12-11T05:04:55.822Z,2.03
2022-12-11T05:08:17.640Z,2.40
2022-12-11T05:11:40.133Z,1.85
2022-12-11T05:15:02.629Z,2.20
2022-12-11T05:18:24.680Z,1.85
2022-12-11T05:21:47.916Z,2.28
2022-12-11T05:25:11.277Z,2.55
2022-12-11T05:28:34.775Z,3.33
2022-12-11T05:31:56.514Z,3.50
2022-12-11T05:35:18.680Z,2.45
2022-12-11T05:38:41.681Z,2.97
2022-12-11T05:42:03.718Z,2.88
2022-12-11T05:45:25.509Z,2.72
2022-12-11T05:48:49.982Z,2.60
2022-12-11T05:52:12.044Z,3.33
2022-12-11T05:55:37.459Z,3.50
2022-12-11T05:59:00.075Z,3.50
2022-12-11T06:02:21.863Z,3.85
2022-12-11T06:05:44.319Z,4.53
2022-12-11T06:09:07.641Z,3.67
2022-12-11T06:12:31.216Z,4.28
2022-12-11T06:15:53.013Z,3.13
2022-12-11T06:19:18.681Z,2.80
2022-12-11T06:22:40.436Z,3.03
2022-12-11T06:26:04.499Z,2.83
2022-12-11T06:29:27.709Z,2.25
2022-12-11T06:32:49.821Z,3.58
2022-12-11T06:36:13.585Z,2.90
2022-12-11T06:39:38.337Z,3.00
2022-12-11T06:43:00.075Z,3.33
2022-12-11T06:46:23.553Z,3.42
2022-12-11T06:49:45.046Z,3.15
2022-12-11T06:53:06.792Z,3.15
2022-12-11T06:56:54.036Z,3.20
2022-12-11T07:00:17.217Z,2.83
2022-12-11T07:03:40.291Z,2.95
2022-12-11T07:07:03.246Z,3.13
2022-12-11T07:10:25.604Z,3.08
2022-12-11T07:13:47.774Z,3.38
2022-12-11T07:17:09.609Z,4.13
2022-12-11T07:20:33.016Z,4.32
2022-12-11T07:23:54.836Z,2.67
2022-12-11T07:27:16.815Z,3.85
2022-12-11T07:30:39.655Z,4.68
2022-12-11T07:34:03.937Z,4.28
2022-12-11T07:37:27.996Z,4.95
2022-12-11T07:40:49.722Z,4.40
2022-12-11T07:44:13.029Z,4.50
2022-12-11T07:47:35.339Z,3.17
2022-12-11T07:50:57.013Z,3.70
2022-12-11T07:54:22.670Z,3.78
2022-12-11T07:57:44.853Z,4.13
2022-12-11T08:01:07.516Z,3.30
2022-12-11T08:04:29.531Z,3.87
2022-12-11T08:07:51.128Z,3.30
2022-12-11T08:11:18.207Z,2.92
2022-12-11T08:14:39.824Z,3.65
2022-12-11T08:18:01.598Z,4.22
2022-12-11T08:21:25.435Z,2.70
2022-12-11T08:24:48.302Z,4.43
2022-12-11T08:28:11.506Z,5.15
2022-12-11T08:31:33.367Z,3.67
2022-12-11T08:34:55.369Z,3.97
2022-12-11T08:38:20.953Z,3.60
2022-12-11T08:41:47.536Z,3.90
2022-12-11T08:45:12.067Z,4.00
2022-12-11T08:48:34.061Z,6.10
2022-12-11T08:51:55.996Z,4.68
2022-12-11T08:55:17.784Z,4.30
2022-12-11T08:58:40.278Z,4.07
2022-12-11T09:02:03.265Z,4.22
2022-12-11T09:05:24.963Z,3.75
2022-12-11T09:08:52.291Z,5.13
2022-12-11T09:12:15.202Z,6.05
2022-12-11T09:15:38.308Z,5.88
2022-12-11T09:19:02.177Z,6.50
2022-12-11T09:22:24.208Z,6.82
2022-12-11T09:25:46.248Z,6.78
2022-12-11T09:29:08.190Z,8.43
2022-12-11T09:32:30.659Z,6.80
2022-12-11T09:36:00.230Z,7.25
2022-12-11T09:39:22.506Z,11.27
2022-12-11T09:42:59.548Z,8.13
2022-12-11T09:46:24.707Z,9.45
2022-12-11T09:49:48.948Z,7.32
2022-12-11T09:53:17.615Z,7.55
2022-12-11T09:56:47.740Z,7.85
2022-12-11T10:00:18.915Z,6.38
2022-12-11T10:03:53.123Z,8.23
2022-12-11T10:07:19.729Z,11.10
2022-12-11T10:10:47.470Z,10.88
2022-12-11T10:14:19.995Z,9.38
2022-12-11T10:17:44.776Z,10.07
2022-12-11T10:21:07.557Z,12.90
2022-12-11T10:28:22.600Z,8.25
2022-12-11T10:31:51.569Z,8.55
2022-12-11T10:35:21.063Z,8.63
2022-12-11T10:38:46.039Z,12.93
2022-12-11T10:42:17.754Z,10.15
2022-12-11T10:45:41.708Z,8.70
2022-12-11T10:49:03.632Z,10.13
2022-12-11T10:52:28.039Z,6.40
2022-12-11T10:55:50.945Z,9.20
2022-12-11T10:59:25.246Z,7.65
2022-12-11T11:02:48.664Z,11.60
2022-12-11T11:06:18.709Z,8.43
2022-12-11T11:09:43.869Z,6.30
2022-12-11T11:13:05.911Z,8.30
2022-12-11T11:16:27.960Z,6.75
2022-12-11T11:19:51.368Z,7.30
2022-12-11T11:23:16.450Z,6.28
2022-12-11T11:27:11.573Z,6.93
2022-12-11T11:30:27.075Z,6.57
2022-12-11T11:33:57.199Z,7.15
2022-12-11T11:37:31.565Z,5.93
2022-12-11T11:41:05.625Z,5.97
2022-12-11T11:44:37.675Z,4.32
2022-12-11T11:48:11.462Z,7.05
2022-12-11T11:51:41.174Z,4.60
2022-12-11T11:55:10.904Z,3.38
2022-12-11T11:58:41.282Z,3.00
2022-12-11T12:02:02.862Z,4.20
2022-12-11T12:05:33.079Z,4.60
2022-12-11T12:09:01.057Z,5.07
2022-12-11T12:12:37.200Z,5.43
2022-12-11T12:16:04.991Z,5.60
2022-12-11T12:19:44.512Z,5.28
2022-12-11T12:23:37.518Z,6.80
2022-12-11T12:27:13.436Z,6.72
2022-12-11T12:30:59.280Z,6.75
2022-12-11T12:34:33.836Z,7.65
2022-12-11T12:38:01.585Z,7.47
2022-12-11T12:41:29.843Z,8.65
2022-12-11T12:44:59.883Z,7.85
2022-12-11T12:48:26.281Z,7.22
2022-12-11T12:51:48.933Z,7.22
2022-12-11T12:55:23.124Z,9.68
2022-12-11T12:58:49.182Z,9.02
2022-12-11T13:02:19.931Z,8.73
2022-12-11T13:05:45.961Z,8.93
2022-12-11T13:09:18.651Z,7.95
2022-12-11T13:12:47.759Z,9.05
2022-12-11T13:16:26.928Z,9.05
2022-12-11T13:19:50.040Z,6.55
2022-12-11T13:23:20.543Z,6.53
2022-12-11T13:26:42.645Z,8.73
2022-12-11T13:30:22.310Z,7.80
2022-12-11T13:33:47.283Z,8.63
2022-12-11T13:37:26.045Z,6.85
2022-12-11T13:40:55.000Z,9.20
2022-12-11T13:44:23.000Z,9.45
2022-12-11T13:47:46.260Z,9.73
2022-12-11T13:51:08.771Z,9.30
2022-12-11T13:54:31.955Z,7.95
2022-12-11T13:57:55.276Z,9.35
2022-12-11T14:01:22.246Z,8.02
2022-12-11T14:04:44.516Z,8.55
2022-12-11T14:08:10.754Z,6.10
2022-12-11T14:11:36.886Z,8.43
2022-12-11T14:15:03.345Z,7.30
2022-12-11T14:18:28.557Z,8.40
2022-12-11T14:21:58.548Z,9.20
2022-12-11T14:25:25.066Z,9.70
2022-12-11T14:28:47.106Z,7.88
2022-12-11T14:32:10.723Z,8.13
2022-12-11T14:35:38.880Z,8.25
2022-12-11T14:39:05.001Z,7.50
2022-12-11T14:42:31.851Z,9.45
2022-12-11T14:45:59.365Z,12.20
2022-12-11T14:49:27.581Z,10.15
2022-12-11T14:52:53.687Z,7.36
2022-12-11T14:56:20.620Z,10.70
2022-12-11T14:59:47.504Z,9.45
2022-12-11T15:03:23.821Z,9.18
2022-12-11T15:06:49.126Z,9.55
2022-12-11T15:10:24.389Z,8.75
2022-12-11T15:13:52.764Z,6.93
2022-12-11T15:17:16.406Z,8.02
2022-12-11T15:20:38.864Z,7.72
2022-12-11T15:24:04.887Z,8.20
2022-12-11T15:27:33.619Z,7.90
2022-12-11T15:30:58.127Z,9.48
2022-12-11T15:34:24.239Z,9.23
2022-12-11T15:37:54.261Z,9.75
2022-12-11T15:41:21.240Z,9.25
2022-12-11T15:44:43.776Z,10.30
2022-12-11T15:48:06.222Z,8.38
2022-12-11T15:51:29.278Z,9.88
2022-12-11T15:54:51.313Z,7.80
2022-12-11T15:58:20.007Z,8.85
2022-12-11T16:01:42.168Z,10.43
2022-12-11T16:05:03.907Z,9.88
2022-12-11T16:08:26.414Z,7.97
2022-12-11T16:11:48.179Z,7.82
2022-12-11T16:15:17.498Z,8.90
2022-12-11T16:18:43.512Z,7.38
2022-12-11T16:22:05.799Z,7.80
2022-12-11T16:25:31.830Z,7.15
2022-12-11T16:28:56.035Z,8.07
2022-12-11T16:32:19.392Z,6.22
2022-12-11T16:35:41.876Z,7.10
2022-12-11T16:39:04.130Z,6.25
2022-12-11T16:42:26.161Z,6.28
2022-12-11T16:45:48.116Z,5.68
2022-12-11T16:49:11.484Z,5.30
2022-12-11T16:52:33.664Z,5.70
2022-12-11T16:55:55.625Z,5.32
2022-12-11T16:59:17.559Z,7.03
2022-12-11T17:02:39.550Z,5.18
2022-12-11T17:06:02.919Z,6.68
2022-12-11T17:09:28.713Z,5.47
2022-12-11T17:12:50.888Z,5.32
2022-12-11T17:16:14.900Z,5.88
2022-12-11T17:19:37.392Z,5.72
2022-12-11T17:23:02.192Z,6.00
2022-12-11T17:26:25.398Z,6.55
2022-12-11T17:29:49.607Z,6.43
2022-12-11T17:33:12.362Z,5.32
2022-12-11T17:36:36.645Z,5.07
2022-12-11T17:39:59.746Z,5.75
2022-12-11T17:43:21.545Z,5.95
2022-12-11T17:46:43.290Z,5.35
2022-12-11T17:50:07.039Z,7.40
2022-12-11T17:53:28.762Z,6.80
2022-12-11T17:56:53.911Z,5.13
2022-12-11T18:00:17.561Z,5.85
2022-12-11T18:03:39.328Z,4.97
2022-12-11T18:07:01.603Z,5.47
2022-12-11T18:10:26.009Z,6.68
2022-12-11T18:13:50.251Z,6.75
2022-12-11T18:17:12.389Z,7.35
2022-12-11T18:20:36.029Z,6.13
2022-12-11T18:23:58.129Z,6.57
2022-12-11T18:27:19.835Z,4.53
2022-12-11T18:30:43.311Z,4.60
2022-12-11T18:34:06.233Z,5.63
2022-12-11T18:37:28.350Z,4.85
2022-12-11T18:40:50.329Z,6.05
2022-12-11T18:44:12.323Z,5.03
2022-12-11T18:47:35.882Z,5.15
2022-12-11T18:50:57.673Z,6.28
2022-12-11T18:54:19.935Z,7.10
2022-12-11T18:57:42.088Z,6.72
2022-12-11T19:01:08.446Z,5.53
2022-12-11T19:04:32.098Z,6.55
2022-12-11T19:07:54.248Z,5.72
2022-12-11T19:11:17.290Z,5.28
2022-12-11T19:14:39.135Z,6.05
2022-12-11T19:18:01.204Z,6.72
2022-12-11T19:21:24.850Z,4.55
2022-12-11T19:24:46.813Z,4.93
2022-12-11T19:28:08.603Z,5.38
2022-12-11T19:31:32.870Z,5.10
2022-12-11T19:34:55.199Z,4.35
2022-12-11T19:38:18.498Z,4.78
2022-12-11T19:41:40.675Z,4.90
2022-12-11T19:45:04.187Z,8.15
2022-12-11T19:48:26.300Z,6.25
2022-12-11T19:51:48.466Z,5.13
2022-12-11T19:55:15.090Z,5.65
2022-12-11T19:58:37.281Z,5.10
2022-12-11T20:01:59.163Z,4.22
2022-12-11T20:05:21.215Z,6.43
2022-12-11T20:08:45.666Z,4.97
2022-12-11T20:12:10.635Z,5.43
2022-12-11T20:15:33.031Z,5.10
2022-12-11T20:18:55.938Z,4.82
2022-12-11T20:22:18.046Z,6.53
2022-12-11T20:25:40.531Z,5.15
2022-12-11T20:29:07.330Z,4.13
2022-12-11T20:32:30.206Z,4.38
2022-12-11T20:35:52.139Z,4.65
2022-12-11T20:39:15.184Z,4.45
2022-12-11T20:42:37.169Z,4.15
2022-12-11T20:46:01.324Z,4.15
2022-12-11T20:49:23.392Z,4.15
2022-12-11T20:52:45.483Z,4.95
2022-12-11T20:56:11.204Z,4.28
2022-12-11T20:59:33.259Z,5.50
2022-12-11T21:02:57.375Z,4.43
2022-12-11T21:06:20.489Z,4.45
2022-12-11T21:09:42.420Z,5.80
2022-12-11T21:13:04.696Z,3.80
2022-12-11T21:16:26.829Z,4.13
2022-12-11T21:19:50.622Z,4.07
2022-12-11T21:23:12.850Z,3.40
2022-12-11T21:26:35.008Z,4.72
2022-12-11T21:29:57.433Z,4.28
2022-12-11T21:33:19.284Z,4.50
2022-12-11T21:36:44.080Z,6.45
2022-12-11T21:40:06.903Z,6.35
2022-12-11T21:43:28.892Z,7.20
2022-12-11T21:46:50.917Z,6.32
2022-12-11T21:50:13.003Z,5.63
2022-12-11T21:53:35.909Z,5.60
2022-12-11T21:56:57.991Z,7.32
2022-12-11T22:00:20.264Z,7.43
2022-12-11T22:03:42.306Z,7.28
2022-12-11T22:07:03.854Z,7.75
2022-12-11T22:10:27.291Z,7.72
2022-12-11T22:13:49.485Z,8.05
2022-12-11T22:17:11.351Z,7.43
2022-12-11T22:20:33.521Z,8.45
2022-12-11T22:23:55.578Z,8.65
2022-12-11T22:27:23.482Z,8.57
2022-12-11T22:30:48.013Z,8.02
2022-12-11T22:34:09.769Z,11.27
2022-12-11T22:37:32.155Z,8.52
2022-12-11T22:40:55.198Z,7.47
2022-12-11T22:44:20.633Z,9.55
2022-12-11T22:47:42.589Z,8.00
2022-12-11T22:51:06.534Z,6.90
2022-12-11T22:54:28.428Z,7.80
2022-12-11T22:57:50.181Z,6.63
2022-12-11T23:01:16.684Z,8.23
2022-12-11T23:04:38.774Z,7.70
2022-12-11T23:08:00.638Z,6.63
2022-12-11T23:11:26.466Z,6.53
2022-12-11T23:14:48.143Z,6.05
2022-12-11T23:18:11.468Z,6.97
2022-12-11T23:21:36.766Z,6.82
2022-12-11T23:24:58.650Z,7.78
2022-12-11T23:28:21.065Z,7.35
2022-12-11T23:31:43.046Z,7.30
2022-12-11T23:35:07.066Z,6.40
2022-12-11T23:38:28.974Z,7.55
2022-12-11T23:41:53.844Z,7.00
2022-12-11T23:45:15.666Z,8.15
2022-12-11T23:48:37.611Z,6.72
2022-12-11T23:52:01.221Z,6.20
2022-12-11T23:55:25.529Z,5.10
2022-12-11T23:58:47.511Z,5.88
